Grizzly Air Cargo 5132


PAJN
Juneau International Airport
Juneau, Alaska, US
PANC
Ted Stevens Anchorage International Airport
Anchorage, Alaska, US

Activity Log

Date Flight Route Aircraft Duration
09/27/2019 GRZ502 CHLKT1 ALATY JOH WITTI4 B722 1h 30m
09/24/2019 GRZ532 CHLKT1 ALATY JOH WITTI4 B738 1h 38m
08/28/2019 GRZ532 CHLKT1 ALATY JOH WITTI4 B738 1h 24m
08/04/2019 GRZ532 CHLKT1 ALATY JOH WITTI4 B738 1h 37m
07/01/2019 GRZ502 CHLKT1 ALATY JOH WITTI4 B722 1h 39m
04/15/2019 GRZ502 ASORT2 ASORT J541 YAK J501 JOH B722 1h 33m
03/07/2019 GRZ502 CHLKT1 ALATY JOH WITTI4 B722 1h 37m

Route Details

Aircraft Information
Primary: Boeing 737-800BCF
Backup: Boeing 727-200F
Route Data
Distance: 496nm
Sched. Duration: 2h 00m
Avg. Duration: 1h 34m (-66m)
Times Flown: 7
Recm'd Route: CHLKT1 ALATY JOH WITTI4
Planned Altitude: 30,000ft
Origin Wx: PAJN 051453Z 00000KT 10SM FEW004 BKN065 OVC095 09/07 A2993 RMK AO2 RAE37 SLP135 P0000 60004 T00890072 57008
Dest. Wx: PANC 051453Z 16003KT 10SM SCT100 11/06 A2993 RMK AO2 SLP135 T01060061 58001 $
Notes:

Financial History
Total Freight: 252,303lbs
Average Load: 36,043lbs/flt
Fuel Used: 75,950lbs
Avg. Fuel Used: 10,850lbs/flt
Fuel Expense: $81,267
Avg. Fuel Expense: $11,610
Avg. Fuel Cost: $1.07/lbs
Total Gross Income: $358,270
Pilot Pay: $1,363
Total Expenses: $39,057
Total Revenue: $235,512
Average Revenue: $51,181.47